createdAt,value
2023-01-28T00:01:29.356Z,100104.74
2023-01-28T00:04:03.093Z,100104.91
2023-01-28T00:06:38.095Z,100114.77
2023-01-28T00:09:12.241Z,100115.14
2023-01-28T00:11:47.581Z,100114.42
2023-01-28T00:14:22.235Z,100113.49
2023-01-28T00:16:56.831Z,100115.91
2023-01-28T00:19:29.740Z,100118.45
2023-01-28T00:22:04.700Z,100124.25
2023-01-28T00:24:38.598Z,100129.90
2023-01-28T00:27:11.523Z,100126.08
2023-01-28T00:29:45.531Z,100129.52
2023-01-28T00:32:19.286Z,100126.42
2023-01-28T00:34:52.350Z,100135.20
2023-01-28T00:37:26.120Z,100133.25
2023-01-28T00:40:00.365Z,100136.17
2023-01-28T00:42:35.630Z,100132.36
2023-01-28T00:45:10.549Z,100132.30
2023-01-28T00:47:45.549Z,100123.90
2023-01-28T00:50:20.633Z,100132.97
2023-01-28T00:52:54.979Z,100134.80
2023-01-28T00:55:28.722Z,100122.94
2023-01-28T00:58:01.909Z,100122.39
2023-01-28T01:00:36.798Z,100114.73
2023-01-28T01:03:10.936Z,100112.91
2023-01-28T01:05:44.042Z,100111.64
2023-01-28T01:08:18.243Z,100112.73
2023-01-28T01:10:51.967Z,100114.59
2023-01-28T01:13:25.883Z,100118.25
2023-01-28T01:16:12.308Z,100110.05
2023-01-28T01:18:46.320Z,100105.70
2023-01-28T01:21:23.722Z,100106.98
2023-01-28T01:23:58.147Z,100114.63
2023-01-28T01:26:32.111Z,100111.35
2023-01-28T01:29:05.814Z,100111.17
2023-01-28T01:31:41.167Z,100099.91
2023-01-28T01:34:15.139Z,100098.98
2023-01-28T01:36:48.157Z,100103.73
2023-01-28T01:39:21.793Z,100100.08
2023-01-28T01:41:55.566Z,100091.73
2023-01-28T01:44:59.961Z,100098.45
2023-01-28T01:47:58.766Z,100101.38
2023-01-28T01:50:42.945Z,100101.38
2023-01-28T01:53:19.439Z,100104.66
2023-01-28T01:55:57.268Z,100104.25
2023-01-28T01:58:34.890Z,100100.05
2023-01-28T02:01:09.840Z,100104.73
2023-01-28T02:03:54.482Z,100102.16
2023-01-28T02:06:28.792Z,100098.13
2023-01-28T02:09:03.795Z,100105.91
2023-01-28T02:11:39.606Z,100101.67
2023-01-28T02:14:22.391Z,100098.53
2023-01-28T02:16:49.191Z,100092.11
2023-01-28T02:19:25.273Z,100089.14
2023-01-28T02:22:30.720Z,100091.48
2023-01-28T02:25:36.594Z,100093.48
2023-01-28T02:28:40.492Z,100094.00
2023-01-28T02:31:21.211Z,100099.27
2023-01-28T02:34:02.552Z,100085.23
2023-01-28T02:36:54.634Z,100077.74
2023-01-28T02:39:33.959Z,100072.47
2023-01-28T02:42:18.409Z,100060.30
2023-01-28T02:44:52.330Z,100052.27
2023-01-28T02:47:45.202Z,100051.71
2023-01-28T02:50:20.581Z,100051.92
2023-01-28T02:53:44.385Z,100051.55
2023-01-28T02:56:25.081Z,100052.98
2023-01-28T02:59:14.232Z,100051.53
2023-01-28T03:01:48.894Z,100047.28
2023-01-28T03:04:51.745Z,100048.34
2023-01-28T03:07:28.801Z,100051.02
2023-01-28T03:10:06.714Z,100044.42
2023-01-28T03:13:01.049Z,100056.24
2023-01-28T03:16:02.750Z,100042.19
2023-01-28T03:19:09.906Z,100042.31
2023-01-28T03:22:03.030Z,100042.64
2023-01-28T03:24:59.911Z,100046.05
2023-01-28T03:28:05.828Z,100039.64
2023-01-28T03:31:07.334Z,100041.98
2023-01-28T03:34:02.642Z,100032.48
2023-01-28T03:36:52.067Z,100041.38
2023-01-28T03:39:31.909Z,100042.44
2023-01-28T03:42:13.881Z,100046.22
2023-01-28T03:44:52.903Z,100048.94
2023-01-28T03:47:34.396Z,100045.66
2023-01-28T03:50:11.591Z,100043.64
2023-01-28T03:52:58.243Z,100046.86
2023-01-28T03:55:33.990Z,100044.47
2023-01-28T03:58:08.477Z,100036.05
2023-01-28T04:00:44.760Z,100043.36
2023-01-28T04:03:20.715Z,100051.86
2023-01-28T04:06:06.536Z,100046.92
2023-01-28T04:08:53.298Z,100049.64
2023-01-28T04:11:40.864Z,100042.91
2023-01-28T04:14:16.395Z,100050.02
2023-01-28T04:16:52.574Z,100044.75
2023-01-28T04:19:28.335Z,100043.30
2023-01-28T04:22:02.644Z,100044.03
2023-01-28T04:24:36.708Z,100047.36
2023-01-28T04:27:11.204Z,100048.98
2023-01-28T04:29:45.335Z,100057.92
2023-01-28T04:32:30.566Z,100046.97
2023-01-28T04:35:09.441Z,100046.75
2023-01-28T04:37:54.105Z,100045.45
2023-01-28T04:40:46.586Z,100041.19
2023-01-28T04:43:22.775Z,100042.62
2023-01-28T04:45:59.099Z,100043.86
2023-01-28T04:48:37.558Z,100037.45
2023-01-28T04:51:28.683Z,100041.22
2023-01-28T04:54:20.638Z,100035.70
2023-01-28T04:56:56.580Z,100038.39
2023-01-28T04:59:30.741Z,100035.42
2023-01-28T05:02:05.495Z,100031.92
2023-01-28T05:04:39.381Z,100037.90
2023-01-28T05:07:14.593Z,100043.34
2023-01-28T05:09:48.900Z,100040.95
2023-01-28T05:12:23.882Z,100037.63
2023-01-28T05:14:58.054Z,100029.77
2023-01-28T05:17:32.730Z,100037.05
2023-01-28T05:20:07.665Z,100039.22
2023-01-28T05:22:42.511Z,100039.99
2023-01-28T05:25:18.373Z,100034.55
2023-01-28T05:27:55.776Z,100030.55
2023-01-28T05:30:29.864Z,100038.06
2023-01-28T05:33:04.173Z,100044.30
2023-01-28T05:35:38.426Z,100036.30
2023-01-28T05:38:14.933Z,100035.02
2023-01-28T05:40:49.859Z,100037.73
2023-01-28T05:43:23.757Z,100032.97
2023-01-28T05:46:15.314Z,100036.23
2023-01-28T05:49:08.877Z,100031.45
2023-01-28T05:52:01.899Z,100028.34
2023-01-28T05:54:38.174Z,100024.00
2023-01-28T05:57:13.116Z,100018.83
2023-01-28T05:59:46.843Z,100017.48
2023-01-28T06:02:21.061Z,100019.25
2023-01-28T06:04:56.408Z,100024.46
2023-01-28T06:07:30.216Z,100020.44
2023-01-28T06:10:03.278Z,100022.94
2023-01-28T06:12:37.233Z,100026.87
2023-01-28T06:15:29.266Z,100033.74
2023-01-28T06:18:07.672Z,100024.53
2023-01-28T06:20:42.920Z,100023.13
2023-01-28T06:23:17.073Z,100021.81
2023-01-28T06:25:51.730Z,100025.27
2023-01-28T06:28:25.163Z,100027.59
2023-01-28T06:30:58.908Z,100035.27
2023-01-28T06:33:32.765Z,100040.72
2023-01-28T06:36:08.323Z,100039.44
2023-01-28T06:38:42.241Z,100035.21
2023-01-28T06:41:15.971Z,100029.90
2023-01-28T06:43:49.986Z,100039.33
2023-01-28T06:46:25.099Z,100039.65
2023-01-28T06:48:59.047Z,100034.63
2023-01-28T06:51:34.739Z,100041.66
2023-01-28T06:54:09.428Z,100037.63
2023-01-28T06:56:43.470Z,100033.27
2023-01-28T06:59:18.078Z,100039.98
2023-01-28T07:01:52.676Z,100032.84
2023-01-28T07:04:25.955Z,100033.00
2023-01-28T07:06:59.987Z,100033.47
2023-01-28T07:09:34.165Z,100034.90
2023-01-28T07:12:08.703Z,100034.98
2023-01-28T07:14:44.046Z,100038.91
2023-01-28T07:17:18.649Z,100041.27
2023-01-28T07:19:53.472Z,100039.68
2023-01-28T07:22:27.918Z,100033.00
2023-01-28T07:25:02.626Z,100031.64
2023-01-28T07:27:36.656Z,100028.11
2023-01-28T07:30:13.408Z,100025.84
2023-01-28T07:32:47.613Z,100019.36
2023-01-28T07:35:21.485Z,100023.92
2023-01-28T07:38:02.876Z,100021.57
2023-01-28T07:40:36.730Z,100021.57
2023-01-28T07:43:11.279Z,100023.37
2023-01-28T07:45:48.567Z,100016.14
2023-01-28T07:48:22.551Z,100014.65
2023-01-28T07:50:59.528Z,100008.39
2023-01-28T07:53:34.075Z,100004.61
2023-01-28T07:56:08.291Z,100011.77
2023-01-28T07:58:42.275Z,100006.70
2023-01-28T08:01:45.209Z,100007.39
2023-01-28T08:04:19.483Z,100008.58
2023-01-28T08:06:54.097Z,100011.11
2023-01-28T08:09:28.058Z,100002.66
2023-01-28T12:12:05.402Z,99863.28
2023-01-28T12:15:12.010Z,99874.88
2023-01-28T12:17:55.350Z,99870.80
2023-01-28T12:20:49.713Z,99884.07
2023-01-28T12:24:11.548Z,99880.78
2023-01-28T12:27:17.893Z,99873.75
2023-01-28T12:30:17.107Z,99874.50
2023-01-28T12:33:06.673Z,99876.54
2023-01-28T12:36:14.146Z,99876.33
2023-01-28T12:39:06.499Z,99870.80
2023-01-28T12:41:46.626Z,99878.03
2023-01-28T12:44:29.990Z,99871.89
2023-01-28T12:47:10.423Z,99869.67
2023-01-28T12:49:53.847Z,99859.94
2023-01-28T12:52:37.490Z,99869.81
2023-01-28T12:55:45.581Z,99865.07
2023-01-28T12:58:25.438Z,99861.97
2023-01-28T13:01:02.798Z,99865.96
2023-01-28T13:04:07.500Z,99864.28
2023-01-28T13:06:53.746Z,99871.78
2023-01-28T13:09:28.401Z,99867.53
2023-01-28T13:12:02.243Z,99869.95
2023-01-28T13:14:36.553Z,99867.78
2023-01-28T13:17:14.999Z,99864.82
2023-01-28T13:19:48.257Z,99869.81
2023-01-28T13:22:37.155Z,99868.39
2023-01-28T13:25:27.440Z,99868.03
2023-01-28T13:28:06.986Z,99862.11
2023-01-28T13:30:50.086Z,99865.57
2023-01-28T13:33:36.531Z,99866.50
2023-01-28T13:36:47.330Z,99865.21
2023-01-28T13:39:23.715Z,99865.71
2023-01-28T13:42:17.369Z,99869.56
2023-01-28T13:44:50.538Z,99866.50
2023-01-28T13:47:35.714Z,99864.68
2023-01-28T13:50:16.343Z,99865.96
2023-01-28T13:53:16.359Z,99865.47
2023-01-28T13:55:50.133Z,99856.83
2023-01-28T13:58:49.312Z,99863.51
2023-01-28T14:01:57.009Z,99864.12
2023-01-28T14:04:59.881Z,99864.91
2023-01-28T14:07:52.430Z,99868.61
2023-01-28T14:10:38.720Z,99875.78
2023-01-28T14:13:20.031Z,99872.83
2023-01-28T14:16:12.892Z,99873.75
2023-01-28T14:18:47.097Z,99879.17
2023-01-28T14:21:22.368Z,99879.67
2023-01-28T14:23:57.935Z,99881.88
2023-01-28T14:27:00.442Z,99880.95
2023-01-28T14:29:44.400Z,99882.38
2023-01-28T14:32:32.687Z,99884.20
2023-01-28T14:35:10.845Z,99884.73
2023-01-28T14:37:44.012Z,99883.95
2023-01-28T14:40:18.983Z,99883.95
2023-01-28T14:42:56.270Z,99888.08
2023-01-28T14:46:07.695Z,99884.52
2023-01-28T14:48:54.307Z,99885.19
2023-01-28T14:52:00.306Z,99888.39
2023-01-28T14:55:02.011Z,99882.36
2023-01-28T14:57:50.154Z,99891.61
2023-01-28T15:00:27.713Z,99894.17
2023-01-28T15:03:01.853Z,99900.34
2023-01-28T15:05:35.297Z,99895.60
2023-01-28T15:08:08.854Z,99902.45
2023-01-28T15:10:46.251Z,99902.05
2023-01-28T15:13:32.231Z,99902.20
2023-01-28T18:45:23.401Z,99855.97
2023-01-28T18:47:56.801Z,99861.91
2023-01-28T18:50:30.583Z,99855.77
2023-01-28T18:53:04.627Z,99865.94
2023-01-28T18:55:37.533Z,99863.00
2023-01-28T18:58:10.324Z,99864.34
2023-01-28T19:00:44.166Z,99861.80
2023-01-28T19:03:17.091Z,99859.79
2023-01-28T19:05:49.939Z,99860.20
2023-01-28T19:08:23.733Z,99862.66
2023-01-28T19:10:58.573Z,99860.98
2023-01-28T19:13:31.910Z,99859.48
2023-01-28T19:16:06.469Z,99854.08
2023-01-28T19:18:39.753Z,99855.11
2023-01-28T19:21:12.704Z,99856.17
2023-01-28T19:23:50.184Z,99858.48
2023-01-28T19:26:22.170Z,99857.73
2023-01-28T19:28:56.517Z,99851.45
2023-01-28T19:31:30.197Z,99848.34
2023-01-28T19:34:04.044Z,99846.92
2023-01-28T19:36:36.561Z,99846.39
2023-01-28T19:39:10.224Z,99839.47
2023-01-28T19:41:43.337Z,99844.08
2023-01-28T19:44:16.271Z,99843.55
2023-01-28T19:46:52.912Z,99840.62
2023-01-28T19:49:27.653Z,99847.41
2023-01-28T19:52:00.928Z,99843.55
2023-01-28T19:54:34.216Z,99843.80
2023-01-28T19:57:07.891Z,99840.70
2023-01-28T19:59:41.551Z,99841.98
2023-01-28T20:02:14.470Z,99840.34
2023-01-28T20:05:00.046Z,99842.52
2023-01-28T20:07:22.704Z,99842.52
2023-01-28T20:09:56.383Z,99837.38
2023-01-28T20:12:30.019Z,99842.52
2023-01-28T20:15:03.223Z,99838.66
2023-01-28T20:17:36.888Z,99842.52
2023-01-28T20:20:11.608Z,99841.23
2023-01-28T20:22:45.276Z,99841.23
2023-01-28T20:25:19.528Z,99840.84
2023-01-28T20:27:52.688Z,99832.98
2023-01-28T20:30:27.273Z,99834.80
2023-01-28T20:33:00.664Z,99837.91
2023-01-28T20:35:33.728Z,99836.98
2023-01-28T20:38:07.698Z,99841.37
2023-01-28T20:40:42.549Z,99837.91
2023-01-28T20:43:16.028Z,99835.70
2023-01-28T20:45:49.086Z,99840.34
2023-01-28T20:48:22.922Z,99841.23
2023-01-28T20:50:56.440Z,99841.63
2023-01-28T20:53:29.714Z,99842.77
2023-01-28T20:56:03.108Z,99837.85
2023-01-28T20:58:36.058Z,99837.49
2023-01-28T21:01:09.129Z,99834.39
2023-01-28T21:03:42.275Z,99834.25
2023-01-28T21:06:15.827Z,99836.82
2023-01-28T21:08:49.544Z,99837.22
2023-01-28T21:11:24.232Z,99835.27
2023-01-28T21:13:57.907Z,99836.94
2023-01-28T21:16:31.199Z,99829.09
2023-01-28T21:19:04.179Z,99832.41
2023-01-28T21:21:38.112Z,99831.13
2023-01-28T21:24:12.249Z,99830.99
2023-01-28T21:26:45.267Z,99829.70
2023-01-28T21:29:19.149Z,99825.72
2023-01-28T21:31:52.282Z,99826.50
2023-01-28T21:34:26.295Z,99818.66
2023-01-28T21:36:59.339Z,99816.84
2023-01-28T21:39:33.894Z,99814.12
2023-01-28T21:42:07.068Z,99811.03
2023-01-28T21:44:40.074Z,99812.70
2023-01-28T21:47:14.045Z,99809.38
2023-01-28T21:49:47.993Z,99804.47
2023-01-28T21:52:22.503Z,99804.86
2023-01-28T21:54:55.538Z,99808.58
2023-01-28T21:57:29.189Z,99809.11
2023-01-28T22:00:02.527Z,99803.44
2023-01-28T22:02:37.784Z,99801.26
2023-01-28T22:05:11.242Z,99802.55
2023-01-28T22:07:44.281Z,99792.27
2023-01-28T22:10:19.055Z,99789.84
2023-01-28T22:12:53.947Z,99792.55
2023-01-28T22:15:27.491Z,99781.73
2023-01-28T22:18:01.221Z,99785.06
2023-01-28T22:20:35.582Z,99781.99
2023-01-28T22:23:08.803Z,99784.56
2023-01-28T22:25:42.709Z,99784.56
2023-01-28T22:28:16.126Z,99779.56
2023-01-28T22:30:49.705Z,99775.84
2023-01-28T22:33:22.787Z,99771.73
2023-01-28T22:35:56.012Z,99774.97
2023-01-28T22:38:29.156Z,99769.83
2023-01-28T22:41:14.907Z,99762.13
2023-01-28T22:43:49.137Z,99765.19
2023-01-28T22:46:25.713Z,99755.31
2023-01-28T22:48:58.852Z,99753.62
2023-01-28T22:51:35.400Z,99749.28
2023-01-28T22:54:09.303Z,99746.31
2023-01-28T22:56:42.393Z,99749.28
2023-01-28T22:59:16.017Z,99751.84
2023-01-28T23:01:49.264Z,99754.02
2023-01-28T23:04:22.307Z,99751.45
2023-01-28T23:06:55.262Z,99747.20
2023-01-28T23:09:28.500Z,99740.78
2023-01-28T23:12:01.540Z,99736.17
2023-01-28T23:14:52.970Z,99737.32
2023-01-28T23:17:44.029Z,99733.07
2023-01-28T23:20:35.681Z,99736.56
2023-01-28T23:23:29.790Z,99735.28
2023-01-28T23:26:02.882Z,99741.31
2023-01-28T23:28:35.843Z,99737.85
2023-01-28T23:31:09.015Z,99730.14
2023-01-28T23:33:42.187Z,99730.28
2023-01-28T23:36:15.406Z,99728.34
2023-01-28T23:38:48.489Z,99728.47
2023-01-28T23:41:21.618Z,99729.27
2023-01-28T23:43:54.597Z,99727.19
2023-01-28T23:46:38.901Z,99724.76
2023-01-28T23:49:03.335Z,99728.22
2023-01-28T23:51:36.814Z,99730.56
2023-01-28T23:54:09.909Z,99727.46
2023-01-28T23:56:42.840Z,99733.63
2023-01-28T23:59:15.795Z,99734.02
